KEST/EST METAR and TAF weather

Enter ICAO airport designator
Station Type Date Time Source
KEST METAR 2019/04/25 15:52 UTC NOAA

KEST 251552Z AUTO 14003KT 10SM BKN080 OVC090 12/09 A2987 RMK AO2 SLP115 T01220089


Station Type Date Time Source
KEST Decoded METAR 2019/04/25 15:52 UTC NOAA

ESTHERVILLE MUNICIPAL AIRPORT , IA, United States (KEST) 43-24N 94-45W 401M
Apr 25, 2019 - 11:52 AM EDT / 2019.04.25 1552 UTC
Wind: from the SE (140 degrees) at 3 MPH (3 KT):0
Visibility: 10 mile(s):0
Sky conditions: overcast
Temperature: 54.0 F (12.2 C)
Dew Point: 48.0 F (8.9 C)
Relative Humidity: 80%
Pressure (altimeter): 29.87 in. Hg (1011 hPa)
ob: KEST 251552Z AUTO 14003KT 10SM BKN080 OVC090 12/09 A2987 RMK AO2 SLP115 T01220089
cycle: 16

Station Type Date Time Source
KEST TAF UTC NOAA

Error!

Example: see airport list